Time;durP1;ratioP1;P1;durP2;ratioP2;P2;SDS_P1;SDS_P2;PMS_P1;PMS_P2;Temp;Humidity;BMP_temperature;BMP_pressure;BME280_temperature;BME280_humidity;BME280_pressure;Samples;Min_cycle;Max_cycle;Signal;HPM_P1;HPM_P2
2022/04/08 00:02:02;;;;;;;13.48;3.10;;;;;;;5.12;84.02;99735.31;5032330;28;20033;-79
2022/04/08 00:04:30;;;;;;;22.45;3.70;;;;;;;5.14;84.13;99737.88;5030464;28;20037;-79
2022/04/08 00:06:56;;;;;;;13.52;3.20;;;;;;;5.12;84.39;99737.06;5030040;28;20155;-79
2022/04/08 00:09:22;;;;;;;14.93;3.47;;;;;;;5.11;84.82;99737.94;5043653;28;20389;-79
2022/04/08 00:11:47;;;;;;;19.63;3.22;;;;;;;5.14;84.40;99740.50;5048232;28;20045;-79
2022/04/08 00:14:13;;;;;;;18.45;3.50;;;;;;;5.12;84.69;99748.41;5042123;28;20059;-79
2022/04/08 00:16:38;;;;;;;19.65;3.72;;;;;;;5.13;84.73;99757.16;5032324;28;20030;-78
2022/04/08 00:19:04;;;;;;;17.45;3.40;;;;;;;5.13;84.77;99760.63;5030466;28;20041;-79
2022/04/08 00:21:29;;;;;;;20.02;3.58;;;;;;;5.12;84.51;99769.41;5031611;28;20044;-80
2022/04/08 00:23:55;;;;;;;18.17;3.30;;;;;;;5.13;84.44;99779.00;5030436;28;20160;-80
2022/04/08 00:26:20;;;;;;;20.10;2.92;;;;;;;5.13;84.18;99781.63;5043328;28;20031;-81
2022/04/08 00:28:46;;;;;;;19.13;3.47;;;;;;;5.13;84.54;99786.03;5050176;28;20094;-79
2022/04/08 00:31:12;;;;;;;21.38;3.63;;;;;;;5.10;83.49;99786.94;5030814;28;20493;-79
2022/04/08 00:33:37;;;;;;;16.45;2.70;;;;;;;5.12;84.38;99789.53;5031460;28;20029;-79
2022/04/08 00:36:03;;;;;;;20.58;3.50;;;;;;;5.09;83.75;99779.94;5030240;28;20420;-79
2022/04/08 00:38:29;;;;;;;17.38;3.45;;;;;;;5.10;83.58;99804.44;5032697;28;20033;-79
2022/04/08 00:40:55;;;;;;;19.02;3.50;;;;;;;5.08;82.59;99800.97;5033127;28;20368;-80
2022/04/08 00:43:34;;;;;;;19.50;3.55;;;;;;;5.06;83.02;99790.50;5031372;28;20030;-79
2022/04/08 00:46:01;;;;;;;16.75;3.63;;;;;;;5.07;82.17;99794.88;5030334;28;20112;-79
2022/04/08 00:48:27;;;;;;;11.48;2.55;;;;;;;5.05;82.30;99798.41;5030161;28;20025;-79
2022/04/08 00:50:53;;;;;;;18.85;3.83;;;;;;;5.04;81.92;99808.00;5030001;28;20526;-80
2022/04/08 00:53:20;;;;;;;20.92;4.28;;;;;;;5.03;81.76;99811.53;5031145;28;20387;-79
2022/04/08 00:55:45;;;;;;;17.23;3.55;;;;;;;5.02;81.92;99819.44;5031204;28;20065;-79
2022/04/08 00:58:11;;;;;;;13.18;2.65;;;;;;;5.00;81.92;99815.97;5029778;28;20158;-79
2022/04/08 01:00:38;;;;;;;19.83;3.67;;;;;;;5.00;81.20;99823.84;5029934;28;20084;-79
2022/04/08 01:03:04;;;;;;;15.13;3.30;;;;;;;4.91;81.38;99832.72;5031131;28;20366;-79
2022/04/08 01:05:31;;;;;;;14.52;3.25;;;;;;;4.89;81.34;99832.72;5031246;28;20029;-80
2022/04/08 01:07:57;;;;;;;23.05;3.83;;;;;;;4.85;80.82;99825.81;5017586;28;20362;-80
2022/04/08 01:10:23;;;;;;;15.88;3.03;;;;;;;4.87;81.55;99841.50;5014751;28;20067;-80
2022/04/08 01:12:49;;;;;;;16.23;3.25;;;;;;;4.87;82.30;99841.50;5030643;28;20130;-79
2022/04/08 01:15:22;;;;;;;20.58;3.47;;;;;;;4.85;81.98;99851.19;5046819;28;20077;-79
2022/04/08 01:17:49;;;;;;;18.02;3.47;;;;;;;4.81;82.07;99850.34;5031464;28;20037;-79
2022/04/08 01:20:15;;;;;;;16.25;3.20;;;;;;;4.82;82.64;99845.97;5031617;28;20041;-79
2022/04/08 01:22:42;;;;;;;18.80;3.95;;;;;;;4.80;82.41;99847.72;5013258;28;20041;-80
2022/04/08 01:25:10;;;;;;;30.27;3.83;;;;;;;4.78;82.69;99855.63;5030174;28;20140;-79
2022/04/08 01:27:35;;;;;;;17.38;3.25;;;;;;;4.78;83.94;99870.53;5031388;28;20096;-78
2022/04/08 01:30:02;;;;;;;18.63;3.70;;;;;;;4.76;85.07;99873.16;5030428;28;20560;-77
2022/04/08 01:32:28;;;;;;;17.90;3.42;;;;;;;4.75;85.72;99876.69;5031314;28;20125;-76
2022/04/08 01:34:53;;;;;;;21.15;3.72;;;;;;;4.72;85.16;99876.69;5031547;28;20127;-78
2022/04/08 01:37:19;;;;;;;17.17;3.05;;;;;;;4.61;84.58;99871.59;5031284;28;20049;-76
2022/04/08 01:39:45;;;;;;;14.23;2.50;;;;;;;4.54;85.52;99869.94;5030049;28;20052;-77
2022/04/08 01:42:10;;;;;;;18.80;2.95;;;;;;;4.47;86.12;99879.63;5031123;28;20055;-77
2022/04/08 01:44:37;;;;;;;15.20;3.78;;;;;;;4.46;86.65;99877.03;5030115;28;20041;-80
2022/04/08 01:47:03;;;;;;;17.02;3.45;;;;;;;4.42;87.08;99876.19;5031595;28;20438;-77
2022/04/08 01:49:29;;;;;;;25.00;3.83;;;;;;;4.39;87.20;99872.75;5030979;28;20041;-78
2022/04/08 01:51:54;;;;;;;21.85;4.97;;;;;;;4.41;87.29;99876.25;5029638;28;20021;-78
2022/04/08 01:54:20;;;;;;;21.48;3.55;;;;;;;4.37;86.82;99882.38;5030652;28;20128;-78
2022/04/08 01:56:46;;;;;;;18.05;2.88;;;;;;;4.31;87.34;99881.59;5012915;28;20124;-78
2022/04/08 01:59:12;;;;;;;16.67;3.15;;;;;;;4.31;86.86;99883.34;5030664;28;20079;-78
2022/04/08 02:01:37;;;;;;;24.27;3.95;;;;;;;4.28;86.52;99883.38;5030889;28;20367;-82
2022/04/08 02:04:04;;;;;;;16.52;2.50;;;;;;;4.30;86.88;99886.81;5029445;28;20041;-78
2022/04/08 02:06:30;;;;;;;15.18;3.10;;;;;;;4.29;86.44;99909.56;5030911;28;20037;-77
2022/04/08 02:08:57;;;;;;;21.70;3.42;;;;;;;4.28;86.01;99905.22;5036037;28;20049;-80
2022/04/08 02:11:23;;;;;;;13.45;2.75;;;;;;;4.18;85.05;99911.44;5050605;28;20063;-77
2022/04/08 02:13:49;;;;;;;12.38;3.42;;;;;;;4.03;86.19;99917.72;5041337;28;20124;-79
2022/04/08 02:16:14;;;;;;;20.38;2.88;;;;;;;3.95;86.87;99923.88;5029022;28;20140;-77
2022/04/08 02:18:40;;;;;;;13.13;2.55;;;;;;;3.87;87.00;99916.09;5030349;28;20025;-77
2022/04/08 02:21:05;;;;;;;13.73;2.42;;;;;;;3.79;87.61;99916.19;5029010;28;20099;-77
2022/04/08 02:23:33;;;;;;;11.07;2.13;;;;;;;3.74;87.61;99911.88;5028785;28;20105;-77
2022/04/08 02:25:58;;;;;;;11.48;2.88;;;;;;;3.71;87.04;99907.53;5037947;28;20112;-77
2022/04/08 02:28:24;;;;;;;6.18;1.67;;;;;;;3.66;87.25;99909.31;5050110;28;20108;-78
2022/04/08 02:30:52;;;;;;;8.75;1.63;;;;;;;3.62;86.88;99905.00;5032583;28;20056;-78
2022/04/08 02:33:19;;;;;;;9.15;2.00;;;;;;;3.59;87.53;99908.50;5050071;28;20060;-78
2022/04/08 02:35:45;;;;;;;7.40;1.73;;;;;;;3.57;87.43;99906.78;5053676;28;20033;-78
2022/04/08 02:38:11;;;;;;;13.98;2.55;;;;;;;3.51;87.87;99902.47;5054057;28;20029;-78
2022/04/08 02:40:36;;;;;;;6.82;1.63;;;;;;;3.50;87.86;99907.72;5047347;28;20405;-78
2022/04/08 02:43:03;;;;;;;10.05;1.90;;;;;;;3.46;87.85;99909.47;5033969;28;20080;-78
2022/04/08 02:45:29;;;;;;;4.55;1.40;;;;;;;3.45;88.19;99911.22;5034340;28;20388;-78
2022/04/08 02:47:55;;;;;;;8.60;2.40;;;;;;;3.43;87.54;99914.72;5032624;28;20191;-78
2022/04/08 02:50:20;;;;;;;14.60;3.28;;;;;;;3.41;87.98;99913.88;5034070;28;20053;-78
2022/04/08 02:52:46;;;;;;;15.20;3.30;;;;;;;3.38;88.02;99913.91;5033835;28;20052;-78
2022/04/08 02:55:11;;;;;;;10.57;1.83;;;;;;;3.39;87.67;99920.88;5032458;28;20049;-79
2022/04/08 02:57:44;;;;;;;9.07;2.20;;;;;;;3.36;88.16;99920.88;5032344;28;20033;-78
2022/04/08 03:00:11;;;;;;;7.15;1.70;;;;;;;3.35;88.48;99924.41;5033851;28;20060;-78
2022/04/08 03:02:37;;;;;;;8.68;2.03;;;;;;;3.31;88.71;99917.44;5033772;28;20057;-78
2022/04/08 03:05:06;;;;;;;12.73;2.53;;;;;;;3.29;88.37;99913.97;5034032;28;20037;-78
2022/04/08 03:07:32;;;;;;;7.53;1.90;;;;;;;3.26;88.15;99919.22;5033922;28;20029;-78
2022/04/08 03:09:58;;;;;;;10.85;2.50;;;;;;;3.24;88.70;99924.47;5042045;28;20189;-78
2022/04/08 03:12:23;;;;;;;13.05;2.35;;;;;;;3.24;88.75;99921.88;5015526;28;20151;-78
2022/04/08 03:14:49;;;;;;;16.08;2.63;;;;;;;3.22;88.21;99928.84;5039538;28;20551;-78
2022/04/08 03:17:14;;;;;;;18.92;3.17;;;;;;;3.21;88.64;99929.72;5035733;28;20025;-78
2022/04/08 03:19:40;;;;;;;14.18;2.13;;;;;;;3.16;88.89;99923.63;5018480;28;20057;-77
2022/04/08 03:22:06;;;;;;;15.07;2.70;;;;;;;3.17;88.90;99928.00;5038677;28;20061;-78
2022/04/08 03:24:32;;;;;;;14.77;3.05;;;;;;;3.16;88.64;99931.50;5038815;28;20030;-78
2022/04/08 03:26:58;;;;;;;11.98;2.08;;;;;;;3.13;89.41;99940.22;5039395;28;20362;-78
2022/04/08 03:29:23;;;;;;;13.10;2.50;;;;;;;3.13;89.37;99944.59;5034395;28;20492;-79
2022/04/08 03:31:49;;;;;;;14.80;2.80;;;;;;;3.10;88.82;99936.78;5047784;28;20041;-78
2022/04/08 03:34:14;;;;;;;12.27;2.70;;;;;;;3.11;89.41;99947.22;5035614;28;20041;-78
2022/04/08 03:36:40;;;;;;;16.48;3.40;;;;;;;3.12;89.58;99948.97;5033003;28;20030;-78
2022/04/08 03:39:05;;;;;;;16.30;3.45;;;;;;;3.10;89.93;99953.34;5038336;28;20045;-78
2022/04/08 03:41:31;;;;;;;12.95;2.45;;;;;;;3.07;89.92;99948.13;5014440;28;20054;-78
2022/04/08 03:43:56;;;;;;;16.50;3.15;;;;;;;3.07;89.66;99963.81;5028240;28;20049;-78
2022/04/08 03:46:22;;;;;;;17.08;3.75;;;;;;;3.05;89.81;99955.09;5029885;28;20527;-78
2022/04/08 03:48:47;;;;;;;19.00;3.28;;;;;;;3.05;89.95;99965.56;5030290;28;20084;-78
2022/04/08 03:51:13;;;;;;;14.55;2.90;;;;;;;3.07;89.96;99960.34;5030221;28;20037;-78
2022/04/08 03:53:38;;;;;;;13.27;2.67;;;;;;;3.04;90.08;99963.81;5030074;28;20116;-78
2022/04/08 03:56:05;;;;;;;16.77;2.60;;;;;;;3.00;90.33;99965.59;5024831;28;20086;-78
2022/04/08 03:58:30;;;;;;;18.63;3.53;;;;;;;3.01;90.46;99963.84;5032029;28;20045;-78
2022/04/08 04:00:59;;;;;;;15.27;2.45;;;;;;;2.96;89.66;99965.59;5033189;28;20033;-78
2022/04/08 04:03:25;;;;;;;14.98;3.83;;;;;;;2.93;90.41;99968.25;5044231;28;20045;-78
2022/04/08 04:05:50;;;;;;;16.20;2.58;;;;;;;2.92;89.75;99967.38;5021909;28;20099;-78
2022/04/08 04:08:18;;;;;;;8.88;2.40;;;;;;;2.93;89.95;99960.41;5035521;28;20025;-79
2022/04/08 04:10:53;;;;;;;11.93;2.90;;;;;;;2.92;89.52;99962.16;5035812;28;20033;-78
2022/04/08 04:13:18;;;;;;;16.20;2.78;;;;;;;2.91;89.50;99960.41;5014303;28;20389;-78
2022/04/08 04:15:44;;;;;;;9.93;2.85;;;;;;;2.90;89.08;99965.66;5013526;28;20033;-78
2022/04/08 04:18:13;;;;;;;14.38;3.03;;;;;;;2.87;89.46;99960.41;5033828;28;20389;-78
2022/04/08 04:20:38;;;;;;;8.88;2.47;;;;;;;2.85;89.22;99960.44;5016081;28;20383;-78
2022/04/08 04:23:04;;;;;;;14.20;2.78;;;;;;;2.80;89.05;99957.84;5030870;28;20039;-78
2022/04/08 04:25:29;;;;;;;14.20;2.83;;;;;;;2.79;89.31;99950.88;5029513;28;20345;-78
2022/04/08 04:27:55;;;;;;;15.52;2.78;;;;;;;2.79;88.92;99952.59;5029646;28;20053;-78
2022/04/08 04:30:23;;;;;;;11.30;3.30;;;;;;;2.75;89.31;99954.38;5030818;28;20038;-78
2022/04/08 04:32:48;;;;;;;18.02;2.33;;;;;;;2.73;88.96;99956.13;5031009;28;20083;-78
2022/04/08 04:35:14;;;;;;;15.60;3.00;;;;;;;2.70;89.21;99956.16;5030542;28;20124;-78
2022/04/08 04:37:39;;;;;;;10.88;2.30;;;;;;;2.69;88.90;99957.00;5029239;28;20053;-78
2022/04/08 04:40:06;;;;;;;13.60;3.17;;;;;;;2.68;88.93;99959.66;5012714;28;20021;-78
2022/04/08 04:42:31;;;;;;;18.25;2.60;;;;;;;2.66;88.69;99959.63;4992074;28;1087630;-78
2022/04/08 04:44:57;;;;;;;16.45;3.17;;;;;;;2.61;88.88;99961.41;5011815;28;20053;-78
2022/04/08 04:47:23;;;;;;;15.18;3.03;;;;;;;2.58;88.87;99966.66;5013795;28;20029;-78
2022/04/08 04:49:48;;;;;;;11.57;3.00;;;;;;;2.58;89.18;99964.03;5030282;28;20103;-78
2022/04/08 04:52:14;;;;;;;15.98;2.83;;;;;;;2.58;89.12;99961.41;5030169;28;20450;-78
2022/04/08 04:54:41;;;;;;;16.20;2.78;;;;;;;2.54;89.21;99963.16;5030199;28;20056;-78
2022/04/08 04:57:07;;;;;;;10.38;2.42;;;;;;;2.53;89.19;99960.56;5030332;28;20041;-78
2022/04/08 04:59:33;;;;;;;17.65;3.47;;;;;;;2.52;89.75;99964.94;5030064;28;20393;-78
2022/04/08 05:01:58;;;;;;;14.93;3.85;;;;;;;2.53;89.80;99965.78;5030468;28;20037;-78
2022/04/08 05:04:24;;;;;;;15.60;3.55;;;;;;;2.51;90.23;99960.56;5031567;28;20042;-78
2022/04/08 05:06:49;;;;;;;17.83;3.25;;;;;;;2.47;91.47;99960.56;5031491;28;20045;-78
2022/04/08 05:09:15;;;;;;;10.77;3.33;;;;;;;2.46;91.02;99958.84;5033306;28;20037;-78
2022/04/08 05:11:40;;;;;;;12.75;3.20;;;;;;;2.44;91.65;99958.84;5017001;28;20051;-78
2022/04/08 05:14:06;;;;;;;11.18;3.60;;;;;;;2.46;91.65;99964.06;5013423;28;20042;-78
2022/04/08 05:16:31;;;;;;;14.57;3.03;;;;;;;2.46;92.02;99975.38;5031606;28;20049;-78
2022/04/08 05:18:58;;;;;;;12.52;3.63;;;;;;;2.47;91.75;99971.03;5030033;28;20041;-78
2022/04/08 05:21:24;;;;;;;11.80;3.08;;;;;;;2.47;91.46;99968.41;5030253;28;20037;-78
2022/04/08 05:23:49;;;;;;;12.75;3.20;;;;;;;2.46;92.10;99964.94;5029190;28;20033;-78
2022/04/08 05:26:15;;;;;;;12.65;3.10;;;;;;;2.45;92.11;99968.44;5029550;28;20072;-78
2022/04/08 05:28:41;;;;;;;10.20;3.42;;;;;;;2.48;92.19;99962.31;5032260;28;20072;-78
2022/04/08 05:31:06;;;;;;;13.23;3.72;;;;;;;2.50;91.81;99964.06;5012932;28;20037;-78
2022/04/08 05:33:32;;;;;;;11.23;3.65;;;;;;;2.54;92.38;99954.44;5030877;28;20037;-78
2022/04/08 05:35:57;;;;;;;10.93;3.00;;;;;;;2.61;92.00;99957.94;5029530;28;20060;-78
2022/04/08 05:38:23;;;;;;;11.93;3.60;;;;;;;2.67;91.92;99956.16;5028339;28;20040;-78
2022/04/08 05:40:49;;;;;;;13.88;4.15;;;;;;;2.74;91.70;99946.53;5012378;28;20026;-78
2022/04/08 05:43:18;;;;;;;16.27;3.97;;;;;;;2.78;91.70;99943.91;5047382;28;20041;-78
2022/04/08 05:45:44;;;;;;;9.25;3.67;;;;;;;2.83;91.33;99949.13;5050779;28;20426;-78
2022/04/08 05:48:09;;;;;;;9.77;3.35;;;;;;;2.87;90.75;99944.72;5032600;28;20108;-78
2022/04/08 05:50:35;;;;;;;14.10;3.55;;;;;;;2.91;90.44;99944.72;5029235;28;20175;-78
2022/04/08 05:53:00;;;;;;;13.27;3.72;;;;;;;2.94;90.74;99943.81;5030356;28;20045;-78
2022/04/08 05:55:26;;;;;;;8.57;3.40;;;;;;;2.96;90.23;99937.69;5029158;28;20037;-78
2022/04/08 05:57:53;;;;;;;8.95;3.53;;;;;;;2.95;89.96;99928.13;5027016;28;20109;-78
2022/04/08 06:00:20;;;;;;;11.07;3.40;;;;;;;2.97;90.60;99934.22;5030582;28;20132;-78
2022/04/08 06:02:47;;;;;;;11.70;3.55;;;;;;;3.03;90.31;99935.94;5029189;28;20053;-78
2022/04/08 06:05:21;;;;;;;11.18;3.03;;;;;;;3.06;89.70;99933.28;5028908;28;20105;-78
2022/04/08 06:07:54;;;;;;;14.80;3.55;;;;;;;3.10;89.69;99932.41;5034817;28;20039;-78
2022/04/08 06:10:26;;;;;;;7.25;3.05;;;;;;;3.14;90.29;99939.38;5035450;28;20446;-78
2022/04/08 06:12:52;;;;;;;9.43;3.67;;;;;;;3.15;89.86;99942.84;5031174;28;20079;-79
2022/04/08 06:15:19;;;;;;;11.23;3.78;;;;;;;3.17;90.61;99939.34;5013309;28;20037;-78
2022/04/08 06:17:46;;;;;;;10.13;3.80;;;;;;;3.24;90.48;99940.19;5029166;28;20777;-78
2022/04/08 06:20:15;;;;;;;13.27;4.32;;;;;;;3.26;91.01;99940.16;5030838;28;20054;-78
2022/04/08 06:22:41;;;;;;;12.73;4.43;;;;;;;3.32;90.94;99942.75;5030144;28;20481;-78
2022/04/08 06:25:08;;;;;;;10.32;4.63;;;;;;;3.36;89.98;99937.47;5030622;28;20104;-78
2022/04/08 06:27:34;;;;;;;13.13;4.60;;;;;;;3.41;90.16;99943.56;5030753;28;20057;-78
2022/04/08 06:29:59;;;;;;;12.88;5.15;;;;;;;3.44;90.14;99940.03;5029223;28;20167;-78
2022/04/08 06:32:25;;;;;;;10.73;5.15;;;;;;;3.51;89.63;99943.47;4979925;28;20063;-79
2022/04/08 06:34:50;;;;;;;11.88;4.90;;;;;;;3.58;90.02;99935.53;5030772;28;20029;-78
2022/04/08 06:37:16;;;;;;;13.57;5.47;;;;;;;3.68;90.61;99936.34;5029321;28;20050;-78
2022/04/08 06:39:41;;;;;;;14.25;6.07;;;;;;;3.79;90.58;99928.41;5029249;28;20457;-78
2022/04/08 06:42:07;;;;;;;12.30;6.50;;;;;;;3.88;89.93;99925.69;5030178;28;20199;-78
2022/04/08 06:44:33;;;;;;;11.50;6.25;;;;;;;3.93;89.79;99917.78;5030318;28;20061;-78
2022/04/08 06:46:59;;;;;;;13.48;6.22;;;;;;;4.01;90.16;99916.84;5029186;28;20101;-78
2022/04/08 06:49:24;;;;;;;10.32;5.88;;;;;;;4.09;89.24;99908.91;5030320;28;20464;-78
2022/04/08 06:51:53;;;;;;;14.15;6.30;;;;;;;4.17;89.81;99911.44;5028675;28;20072;-78
2022/04/08 06:54:18;;;;;;;15.38;6.40;;;;;;;4.26;90.39;99904.34;5028579;28;20026;-79
2022/04/08 06:56:44;;;;;;;11.25;5.82;;;;;;;4.30;88.89;99910.41;5028764;28;20045;-79
2022/04/08 06:59:09;;;;;;;13.32;5.68;;;;;;;4.32;89.06;99912.13;5030111;28;20041;-80
2022/04/08 07:01:35;;;;;;;11.48;5.78;;;;;;;4.34;88.30;99900.78;5030336;28;20091;-79
2022/04/08 07:04:00;;;;;;;12.75;5.80;;;;;;;4.37;88.36;99913.84;5028583;28;20339;-79
2022/04/08 07:06:26;;;;;;;14.48;5.70;;;;;;;4.39;88.41;99912.09;5012608;28;20041;-79
2022/04/08 07:08:52;;;;;;;11.77;5.47;;;;;;;4.41;88.25;99910.31;5032860;28;20129;-81
2022/04/08 07:11:17;;;;;;;15.32;6.78;;;;;;;4.42;87.77;99915.53;5011787;28;20028;-79
2022/04/08 07:13:43;;;;;;;11.55;5.97;;;;;;;4.44;87.38;99912.91;5028337;28;20041;-77
2022/04/08 07:16:09;;;;;;;12.23;5.82;;;;;;;4.47;87.64;99916.34;5011865;28;20111;-79
2022/04/08 07:18:34;;;;;;;14.10;5.72;;;;;;;4.53;87.58;99907.53;5023892;28;20087;-79
2022/04/08 07:21:00;;;;;;;12.15;5.63;;;;;;;4.57;88.05;99903.97;5050080;28;20507;-79
2022/04/08 07:23:26;;;;;;;14.40;5.38;;;;;;;4.62;87.00;99903.94;5035356;28;20064;-79
2022/04/08 07:25:51;;;;;;;9.70;5.13;;;;;;;4.63;86.78;99901.31;5044016;28;20030;-79
2022/04/08 07:28:19;;;;;;;11.60;5.85;;;;;;;4.64;86.52;99897.78;5032305;28;20381;-79
2022/04/08 07:30:48;;;;;;;9.90;5.38;;;;;;;4.68;87.30;99894.25;5032119;28;20095;-79
2022/04/08 07:33:13;;;;;;;13.18;5.47;;;;;;;4.74;86.40;99896.75;5033600;28;20415;-79
2022/04/08 07:35:39;;;;;;;10.45;5.63;;;;;;;4.75;85.74;99902.91;5015556;28;20096;-79
2022/04/08 07:38:05;;;;;;;15.23;5.85;;;;;;;4.78;85.72;99900.22;5031443;28;20397;-80
2022/04/08 07:40:31;;;;;;;12.75;5.30;;;;;;;4.84;86.65;99905.38;5033707;28;20119;-79
2022/04/08 07:42:57;;;;;;;13.00;5.40;;;;;;;4.91;86.87;99901.78;5015260;28;20108;-79
2022/04/08 07:45:27;;;;;;;8.55;5.00;;;;;;;4.98;85.90;99897.34;5015799;28;20132;-79
2022/04/08 07:47:55;;;;;;;15.55;5.22;;;;;;;5.02;85.63;99899.03;5032658;28;20049;-79
2022/04/08 07:50:21;;;;;;;8.98;5.07;;;;;;;5.06;84.91;99900.72;5039333;28;20361;-79
2022/04/08 07:52:46;;;;;;;16.10;5.25;;;;;;;5.07;83.86;99894.59;5048541;28;20033;-80
2022/04/08 07:55:12;;;;;;;10.55;4.97;;;;;;;5.09;84.04;99892.78;5032505;28;20469;-80
2022/04/08 07:57:45;;;;;;;16.55;4.90;;;;;;;5.15;84.78;99886.59;5030981;28;20042;-79
2022/04/08 08:00:21;;;;;;;13.90;4.50;;;;;;;5.19;82.93;99896.13;5033122;28;20121;-80
2022/04/08 08:02:48;;;;;;;11.15;4.53;;;;;;;5.21;81.94;99894.38;5032675;28;20141;-80
2022/04/08 08:05:18;;;;;;;9.77;4.13;;;;;;;5.25;83.89;99896.06;5032945;28;20030;-79
2022/04/08 08:07:55;;;;;;;10.07;4.53;;;;;;;5.26;82.13;99891.66;5035466;28;20025;-80
2022/04/08 08:10:23;;;;;;;12.68;4.43;;;;;;;5.27;82.70;99886.41;5035374;28;20368;-79
2022/04/08 08:12:50;;;;;;;10.07;4.63;;;;;;;5.30;82.12;99893.38;5048923;28;20040;-79
2022/04/08 08:15:18;;;;;;;14.73;5.00;;;;;;;5.31;81.37;99888.06;5031879;28;20029;-79
2022/04/08 08:17:43;;;;;;;10.82;4.55;;;;;;;5.35;80.38;99884.53;5032341;28;20129;-79
2022/04/08 08:20:10;;;;;;;8.00;4.68;;;;;;;5.33;80.94;99878.44;5032635;28;20124;-79
2022/04/08 08:22:36;;;;;;;11.35;5.05;;;;;;;5.37;81.35;99881.88;5032354;28;20396;-80
2022/04/08 08:25:03;;;;;;;9.73;4.47;;;;;;;5.41;80.64;99883.53;5031317;28;20163;-79
2022/04/08 08:27:46;;;;;;;7.75;3.85;;;;;;;5.45;80.27;99887.88;5030766;28;20095;-79
2022/04/08 08:30:14;;;;;;;13.18;4.40;;;;;;;5.49;80.25;99883.41;5014306;28;20441;-79
2022/04/08 08:32:42;;;;;;;10.77;4.18;;;;;;;5.55;80.58;99878.94;5030886;28;20481;-79
2022/04/08 08:35:09;;;;;;;9.40;4.05;;;;;;;5.62;79.66;99877.09;5032303;28;20381;-79
2022/04/08 08:37:35;;;;;;;13.73;3.85;;;;;;;5.69;78.89;99875.22;5030719;28;20428;-79
2022/04/08 08:40:02;;;;;;;9.10;3.78;;;;;;;5.72;78.49;99876.03;5032216;28;20045;-79
2022/04/08 08:42:29;;;;;;;8.90;4.28;;;;;;;5.77;78.37;99857.56;5030547;28;20061;-79
2022/04/08 08:44:54;;;;;;;12.50;4.22;;;;;;;5.80;77.06;99854.88;5032355;28;20038;-79
2022/04/08 08:47:21;;;;;;;9.63;3.88;;;;;;;5.90;79.38;99852.94;5030751;28;20401;-79
2022/04/08 08:49:50;;;;;;;13.93;4.28;;;;;;;5.98;76.64;99851.97;5032042;28;20041;-78
2022/04/08 08:52:18;;;;;;;13.50;3.78;;;;;;;6.02;76.11;99845.72;5032023;28;20037;-79
2022/04/08 08:54:45;;;;;;;11.10;3.75;;;;;;;6.05;74.10;99849.19;5030500;28;20049;-79
2022/04/08 08:57:11;;;;;;;8.07;3.50;;;;;;;6.09;75.05;99846.47;5031700;28;20045;-79
2022/04/08 08:59:37;;;;;;;7.40;3.50;;;;;;;6.15;76.15;99833.22;5032001;28;20079;-79
2022/04/08 09:02:03;;;;;;;7.55;3.60;;;;;;;6.24;74.95;99840.06;5014340;28;20109;-79
2022/04/08 09:04:30;;;;;;;11.05;3.22;;;;;;;6.31;73.17;99830.28;5030352;28;20459;-79
2022/04/08 09:06:56;;;;;;;14.80;3.45;;;;;;;6.34;73.76;99825.81;5030360;28;20060;-79
2022/04/08 09:09:31;;;;;;;10.15;3.65;;;;;;;6.40;74.48;99822.19;5021020;28;20037;-79
2022/04/08 09:12:17;;;;;;;11.75;3.47;;;;;;;6.50;74.45;99822.88;5050216;28;20060;-79
2022/04/08 09:14:53;;;;;;;10.13;3.50;;;;;;;6.54;73.72;99820.13;5031222;28;20440;-79
2022/04/08 09:17:21;;;;;;;8.80;3.20;;;;;;;6.59;71.57;99826.16;5030165;28;20029;-80
2022/04/08 09:19:51;;;;;;;9.43;3.35;;;;;;;6.57;71.26;99819.19;5031486;28;20045;-79
2022/04/08 09:22:18;;;;;;;10.35;3.33;;;;;;;6.58;72.03;99818.31;5030150;28;20116;-79
2022/04/08 09:24:44;;;;;;;8.05;2.97;;;;;;;6.60;71.78;99824.38;5013915;28;20136;-80
2022/04/08 09:27:11;;;;;;;16.17;3.60;;;;;;;6.64;71.43;99821.66;5049660;28;20049;-79
2022/04/08 09:29:37;;;;;;;7.53;2.80;;;;;;;6.67;71.86;99821.59;5049864;28;20426;-79
2022/04/08 09:32:14;;;;;;;12.77;3.67;;;;;;;6.73;71.86;99819.75;5051084;28;20090;-79
2022/04/08 09:34:43;;;;;;;9.07;3.30;;;;;;;6.82;71.73;99819.53;5049811;28;20075;-79
2022/04/08 09:37:15;;;;;;;11.88;2.97;;;;;;;6.82;70.24;99815.13;5051012;28;20452;-80
2022/04/08 09:40:01;;;;;;;11.40;3.25;;;;;;;6.80;70.02;99818.69;5049756;28;20087;-80
2022/04/08 09:42:47;;;;;;;9.00;3.15;;;;;;;6.79;70.28;99809.94;5029436;28;20053;-80
2022/04/08 09:45:13;;;;;;;11.55;2.72;;;;;;;6.81;69.42;99810.75;5029565;28;20472;-80
2022/04/08 09:47:39;;;;;;;7.35;2.92;;;;;;;6.82;68.43;99812.47;5029758;28;20048;-80
2022/04/08 09:50:07;;;;;;;8.38;2.90;;;;;;;6.82;69.14;99812.47;5031057;28;20385;-80
2022/04/08 09:52:33;;;;;;;11.88;3.22;;;;;;;6.80;69.48;99818.69;5030834;28;20042;-80
2022/04/08 09:55:03;;;;;;;12.60;3.63;;;;;;;6.79;68.22;99817.81;5029687;28;20114;-80
2022/04/08 09:57:35;;;;;;;10.95;3.05;;;;;;;6.81;68.48;99813.41;5029397;28;20067;-80
2022/04/08 10:00:01;;;;;;;12.93;3.05;;;;;;;6.84;68.89;99815.94;5030974;28;20040;-79
2022/04/08 10:02:28;;;;;;;7.70;2.58;;;;;;;6.86;68.09;99816.78;5030803;28;20033;-79
2022/04/08 10:04:57;;;;;;;8.50;2.92;;;;;;;6.86;67.98;99813.28;5030953;28;20045;-79
2022/04/08 10:07:25;;;;;;;13.82;3.20;;;;;;;6.92;69.02;99807.88;5018666;28;20072;-80
2022/04/08 10:10:12;;;;;;;14.50;2.90;;;;;;;6.99;68.93;99804.19;5038806;28;20037;-80
2022/04/08 10:13:00;;;;;;;12.20;3.60;;;;;;;7.07;70.18;99806.63;5030599;28;20400;-80
2022/04/08 10:15:32;;;;;;;8.45;3.28;;;;;;;7.07;68.42;99804.91;5030942;28;20123;-80
2022/04/08 10:17:58;;;;;;;11.88;3.13;;;;;;;7.07;68.09;99809.28;5029272;28;20033;-80
2022/04/08 10:20:27;;;;;;;11.68;3.25;;;;;;;7.07;68.94;99804.00;5030169;28;20048;-80
2022/04/08 10:23:09;;;;;;;9.82;2.65;;;;;;;7.08;68.54;99803.13;5028580;28;20039;-80
2022/04/08 10:25:43;;;;;;;7.43;2.83;;;;;;;7.10;67.48;99803.97;5033002;28;20041;-80
2022/04/08 10:28:10;;;;;;;7.57;2.97;;;;;;;7.16;68.18;99805.56;5029080;28;20485;-80
2022/04/08 10:30:54;;;;;;;15.38;2.63;;;;;;;7.18;68.21;99803.78;5042362;28;20079;-80
2022/04/08 10:33:25;;;;;;;9.70;2.70;;;;;;;7.22;68.36;99803.66;5035364;28;20033;-80
2022/04/08 10:35:55;;;;;;;8.93;2.97;;;;;;;7.25;68.05;99795.69;5036178;28;20095;-80
2022/04/08 10:38:21;;;;;;;14.55;3.28;;;;;;;7.23;66.54;99786.09;5039899;28;20064;-79
2022/04/08 10:40:56;;;;;;;8.68;2.83;;;;;;;7.19;66.58;99790.53;5028998;28;20157;-79
2022/04/08 10:43:23;;;;;;;13.40;3.30;;;;;;;7.22;69.02;99789.59;5030439;28;20046;-79
2022/04/08 10:45:57;;;;;;;9.65;2.80;;;;;;;7.26;67.60;99791.28;5029455;28;20075;-79
2022/04/08 10:48:34;;;;;;;10.70;2.70;;;;;;;7.28;64.48;99786.84;5028978;28;20041;-80
2022/04/08 10:51:18;;;;;;;7.18;2.42;;;;;;;7.22;65.27;99790.50;5030589;28;20137;-79
2022/04/08 10:53:43;;;;;;;8.38;2.53;;;;;;;7.27;65.24;99791.25;5030433;28;20051;-80
2022/04/08 10:56:12;;;;;;;12.65;3.25;;;;;;;7.31;64.84;99790.25;5032737;28;20116;-80
2022/04/08 10:58:44;;;;;;;10.48;3.08;;;;;;;7.33;64.46;99790.22;5034207;28;20034;-79
2022/04/08 11:01:28;;;;;;;12.52;3.15;;;;;;;7.36;64.68;99784.00;5034331;28;20064;-79
2022/04/08 11:04:01;;;;;;;9.30;3.10;;;;;;;7.38;66.96;99787.47;5032725;28;20455;-79
2022/04/08 11:06:30;;;;;;;6.78;2.55;;;;;;;7.40;65.32;99781.25;5032029;28;20037;-79
2022/04/08 11:09:02;;;;;;;11.27;3.30;;;;;;;7.39;64.48;99787.41;5046985;28;20029;-79
2022/04/08 11:11:29;;;;;;;12.85;3.42;;;;;;;7.35;63.98;99783.16;5016985;28;20042;-80
2022/04/08 11:13:58;;;;;;;8.60;2.80;;;;;;;7.31;63.60;99770.94;5045621;28;20040;-80
2022/04/08 11:16:33;;;;;;;12.70;3.10;;;;;;;7.36;64.75;99770.84;5053888;28;20036;-79
2022/04/08 11:19:00;;;;;;;9.48;2.90;;;;;;;7.40;64.46;99765.44;5052025;28;20029;-79
2022/04/08 11:21:28;;;;;;;8.85;3.15;;;;;;;7.43;64.78;99773.28;5054021;28;20116;-79
2022/04/08 11:24:05;;;;;;;10.73;2.72;;;;;;;7.49;65.19;99775.75;5052233;28;20094;-79
2022/04/08 11:26:40;;;;;;;16.25;3.22;;;;;;;7.49;64.30;99772.22;5036557;28;20128;-79
2022/04/08 11:29:15;;;;;;;9.02;3.00;;;;;;;7.51;63.80;99767.78;5032322;28;20047;-79
2022/04/08 11:31:41;;;;;;;8.57;3.35;;;;;;;7.47;64.22;99763.53;5032444;28;20045;-79
2022/04/08 11:34:07;;;;;;;8.40;3.05;;;;;;;7.44;63.62;99761.84;5033362;28;20045;-79
2022/04/08 11:36:37;;;;;;;11.13;3.03;;;;;;;7.45;64.93;99755.66;5032106;28;20035;-79